Current River (Missouri), Montauk (07064440)

StateMissouriLatestGood (179 cfs)
RiverCurrent RiverRatingObservedEstimated
Updated2020-02-25 15:15 (57 minutes ago)Flood - The river is flooding. Obstacles can be treacherous or deadly. The river should be avoided at this stage for casual trips and definitely for the inexperienced. Trips should be attempted only with protective gear and equipment.Flood(none)417
Discharge179 cfs (median: 115 cfs)High - The river is high and potentially dangerous, especially for the young and / or inexperienced. Normal stream obstacles are sometimes difficult to navigate. Extended distances can be attempted, but canoe travel may not be advisable.High(none)237
Height2.05 feetGood - Conditions are ideal for a canoe or kayak. Boats typically will drag on fewer than one-quarter of riffles, if at all, and portages are unnecessary or rare. Normal float lengths can be attempted without a problem.Good(none)162
TrendSteady (rising over 24 hours)Low - River is low but can still be floated. Some riffles are okay but most come with significant dragging and might need a portage. Float lengths should be reduced to accommodate low flow, dragging, and portages.Low(none)133
USGSExternal icon USGS Site (External icon Google Maps)Poor - River is too low to float comfortably. Most or all riffles will drag or must be portaged and some obstacles (such as slick shelf rock) cause undue problems. Avoid the river at this stage for casual paddling trips.Poor(none)97

Trending Data

Plot Image

Trips for Current River (Missouri), Montauk (07064440)

DateStartEndDistanceConditionDischargeHeightFishingDetails

A total of 0 rows are displayed.

Condition Descriptions

Fishing Conditions

Fish Species

Notes

Classic Trip List

The classic River Trips application is still available for use. It is updated with the new system using a data retrofit. It is no longer maintained. The original River Trips application is no longer updated (as of 1 Dec 2016) but can be checked for errors or for the condition of the data before it was converted to the new system.

Gauge Data Table

ObservationHeightDischargeMaximum
Discharge
Minimum
Discharge
Mean
Discharge
P05P10P20P25P50
(Median)
P75P80P90P95
2020-02-25 15:15 2.05 179 603 (2018) 59 (2015) 154 69 88 98 115 145 160 441
2020-02-25 14:15 2.05 179 603 (2018) 59 (2015) 154 69 88 98 115 145 160 441
2020-02-25 13:15 2.05 179 603 (2018) 59 (2015) 154 69 88 98 115 145 160 441
2020-02-25 12:15 2.04 176 603 (2018) 59 (2015) 154 69 88 98 115 145 160 441
2020-02-25 11:15 2.05 179 603 (2018) 59 (2015) 154 69 88 98 115 145 160 441
2020-02-25 10:15 2.05 179 603 (2018) 59 (2015) 154 69 88 98 115 145 160 441
2020-02-25 09:15 2.05 179 603 (2018) 59 (2015) 154 69 88 98 115 145 160 441
2020-02-25 08:15 2.05 179 603 (2018) 59 (2015) 154 69 88 98 115 145 160 441
2020-02-25 07:15 2.05 179 603 (2018) 59 (2015) 154 69 88 98 115 145 160 441
2020-02-25 06:15 2.05 179 603 (2018) 59 (2015) 154 69 88 98 115 145 160 441
2020-02-25 05:15 2.04 176 603 (2018) 59 (2015) 154 69 88 98 115 145 160 441
2020-02-25 04:15 2.04 176 603 (2018) 59 (2015) 154 69 88 98 115 145 160 441
2020-02-25 03:15 2.04 176 603 (2018) 59 (2015) 154 69 88 98 115 145 160 441
2020-02-25 02:15 2.05 179 603 (2018) 59 (2015) 154 69 88 98 115 145 160 441
2020-02-25 01:15 2.04 176 603 (2018) 59 (2015) 154 69 88 98 115 145 160 441
2020-02-25 00:15 2.04 176 603 (2018) 59 (2015) 154 69 88 98 115 145 160 441
2020-02-24 23:15 2.04 176 1930 (2018) 58 (2015) 253 68 90 93 111 136 156 1240
2020-02-24 22:15 2.03 174 1930 (2018) 58 (2015) 253 68 90 93 111 136 156 1240
2020-02-24 21:15 2.03 174 1930 (2018) 58 (2015) 253 68 90 93 111 136 156 1240
2020-02-24 20:15 2.03 174 1930 (2018) 58 (2015) 253 68 90 93 111 136 156 1240
2020-02-24 19:15 2.04 176 1930 (2018) 58 (2015) 253 68 90 93 111 136 156 1240
2020-02-24 18:15 2.02 172 1930 (2018) 58 (2015) 253 68 90 93 111 136 156 1240
2020-02-24 17:15 2.02 172 1930 (2018) 58 (2015) 253 68 90 93 111 136 156 1240
2020-02-24 16:15 2.01 170 1930 (2018) 58 (2015) 253 68 90 93 111 136 156 1240
2020-02-24 15:15 2.01 170 1930 (2018) 58 (2015) 253 68 90 93 111 136 156 1240
2020-02-24 14:15 2.00 168 1930 (2018) 58 (2015) 253 68 90 93 111 136 156 1240
2020-02-24 13:15 1.99 166 1930 (2018) 58 (2015) 253 68 90 93 111 136 156 1240
2020-02-24 12:15 1.98 165 1930 (2018) 58 (2015) 253 68 90 93 111 136 156 1240
2020-02-24 11:15 1.96 161 1930 (2018) 58 (2015) 253 68 90 93 111 136 156 1240
2020-02-24 10:15 1.95 159 1930 (2018) 58 (2015) 253 68 90 93 111 136 156 1240
2020-02-24 09:15 1.95 159 1930 (2018) 58 (2015) 253 68 90 93 111 136 156 1240
2020-02-24 08:15 1.94 157 1930 (2018) 58 (2015) 253 68 90 93 111 136 156 1240
2020-02-24 07:15 1.94 157 1930 (2018) 58 (2015) 253 68 90 93 111 136 156 1240
2020-02-24 06:15 1.94 157 1930 (2018) 58 (2015) 253 68 90 93 111 136 156 1240
2020-02-24 05:15 1.94 157 1930 (2018) 58 (2015) 253 68 90 93 111 136 156 1240
2020-02-24 04:15 1.95 159 1930 (2018) 58 (2015) 253 68 90 93 111 136 156 1240
2020-02-24 03:15 1.96 161 1930 (2018) 58 (2015) 253 68 90 93 111 136 156 1240
2020-02-24 02:15 1.93 155 1930 (2018) 58 (2015) 253 68 90 93 111 136 156 1240
2020-02-24 01:15 1.91 151 1930 (2018) 58 (2015) 253 68 90 93 111 136 156 1240
2020-02-24 00:15 1.90 149 1930 (2018) 58 (2015) 253 68 90 93 111 136 156 1240
2020-02-23 23:15 1.90 149 212 (2019) 57 (2015) 118 68 87 89 114 141 150 192
2020-02-23 22:15 1.90 149 212 (2019) 57 (2015) 118 68 87 89 114 141 150 192
2020-02-23 21:15 1.89 147 212 (2019) 57 (2015) 118 68 87 89 114 141 150 192
2020-02-23 20:15 1.89 147 212 (2019) 57 (2015) 118 68 87 89 114 141 150 192
2020-02-23 19:15 1.89 147 212 (2019) 57 (2015) 118 68 87 89 114 141 150 192
2020-02-23 18:15 1.89 147 212 (2019) 57 (2015) 118 68 87 89 114 141 150 192
2020-02-23 17:15 1.89 147 212 (2019) 57 (2015) 118 68 87 89 114 141 150 192
2020-02-23 16:15 1.89 147 212 (2019) 57 (2015) 118 68 87 89 114 141 150 192
2020-02-23 15:15 1.89 147 212 (2019) 57 (2015) 118 68 87 89 114 141 150 192
2020-02-23 14:15 1.89 147 212 (2019) 57 (2015) 118 68 87 89 114 141 150 192
2020-02-23 13:15 1.89 147 212 (2019) 57 (2015) 118 68 87 89 114 141 150 192
2020-02-23 12:15 1.89 147 212 (2019) 57 (2015) 118 68 87 89 114 141 150 192
2020-02-23 11:15 1.89 147 212 (2019) 57 (2015) 118 68 87 89 114 141 150 192
2020-02-23 10:15 1.89 147 212 (2019) 57 (2015) 118 68 87 89 114 141 150 192
2020-02-23 09:15 1.89 147 212 (2019) 57 (2015) 118 68 87 89 114 141 150 192
2020-02-23 08:15 1.89 147 212 (2019) 57 (2015) 118 68 87 89 114 141 150 192
2020-02-23 07:15 1.89 147 212 (2019) 57 (2015) 118 68 87 89 114 141 150 192
2020-02-23 06:15 1.90 149 212 (2019) 57 (2015) 118 68 87 89 114 141 150 192
2020-02-23 05:15 1.89 147 212 (2019) 57 (2015) 118 68 87 89 114 141 150 192
2020-02-23 04:15 1.89 147 212 (2019) 57 (2015) 118 68 87 89 114 141 150 192
2020-02-23 03:15 1.90 149 212 (2019) 57 (2015) 118 68 87 89 114 141 150 192
2020-02-23 02:15 1.89 147 212 (2019) 57 (2015) 118 68 87 89 114 141 150 192
2020-02-23 01:15 1.90 149 212 (2019) 57 (2015) 118 68 87 89 114 141 150 192
2020-02-23 00:15 1.90 149 212 (2019) 57 (2015) 118 68 87 89 114 141 150 192
2020-02-22 23:15 1.90 149 213 (2019) 59 (2015) 123 69 89 91 121 141 151 197
2020-02-22 22:15 1.90 149 213 (2019) 59 (2015) 123 69 89 91 121 141 151 197
2020-02-22 21:15 1.89 147 213 (2019) 59 (2015) 123 69 89 91 121 141 151 197
2020-02-22 20:15 1.89 147 213 (2019) 59 (2015) 123 69 89 91 121 141 151 197
2020-02-22 19:15 1.90 149 213 (2019) 59 (2015) 123 69 89 91 121 141 151 197
2020-02-22 18:15 1.90 149 213 (2019) 59 (2015) 123 69 89 91 121 141 151 197
2020-02-22 17:15 1.90 149 213 (2019) 59 (2015) 123 69 89 91 121 141 151 197
2020-02-22 16:15 1.90 149 213 (2019) 59 (2015) 123 69 89 91 121 141 151 197
2020-02-22 15:15 1.90 149 213 (2019) 59 (2015) 123 69 89 91 121 141 151 197
2020-02-22 14:15 1.90 149 213 (2019) 59 (2015) 123 69 89 91 121 141 151 197
2020-02-22 13:15 1.90 149 213 (2019) 59 (2015) 123 69 89 91 121 141 151 197
2020-02-22 12:15 1.90 149 213 (2019) 59 (2015) 123 69 89 91 121 141 151 197
2020-02-22 11:15 1.89 147 213 (2019) 59 (2015) 123 69 89 91 121 141 151 197
2020-02-22 10:15 1.90 149 213 (2019) 59 (2015) 123 69 89 91 121 141 151 197
2020-02-22 09:15 1.90 149 213 (2019) 59 (2015) 123 69 89 91 121 141 151 197
2020-02-22 08:15 1.90 149 213 (2019) 59 (2015) 123 69 89 91 121 141 151 197
2020-02-22 07:15 1.90 149 213 (2019) 59 (2015) 123 69 89 91 121 141 151 197
2020-02-22 06:15 1.90 149 213 (2019) 59 (2015) 123 69 89 91 121 141 151 197
2020-02-22 05:15 1.90 149 213 (2019) 59 (2015) 123 69 89 91 121 141 151 197
2020-02-22 04:15 1.90 149 213 (2019) 59 (2015) 123 69 89 91 121 141 151 197
2020-02-22 03:15 1.90 149 213 (2019) 59 (2015) 123 69 89 91 121 141 151 197
2020-02-22 02:15 1.90 149 213 (2019) 59 (2015) 123 69 89 91 121 141 151 197
2020-02-22 01:15 1.90 149 213 (2019) 59 (2015) 123 69 89 91 121 141 151 197
2020-02-22 00:15 1.91 151 213 (2019) 59 (2015) 123 69 89 91 121 141 151 197
2020-02-21 23:15 1.91 151 218 (2019) 59 (2015) 127 70 91 94 125 142 153 207
2020-02-21 22:15 1.91 151 218 (2019) 59 (2015) 127 70 91 94 125 142 153 207
2020-02-21 21:15 1.91 151 218 (2019) 59 (2015) 127 70 91 94 125 142 153 207
2020-02-21 20:15 1.90 149 218 (2019) 59 (2015) 127 70 91 94 125 142 153 207
2020-02-21 19:15 1.90 149 218 (2019) 59 (2015) 127 70 91 94 125 142 153 207
2020-02-21 18:15 1.91 151 218 (2019) 59 (2015) 127 70 91 94 125 142 153 207
2020-02-21 17:15 1.91 151 218 (2019) 59 (2015) 127 70 91 94 125 142 153 207
2020-02-21 16:15 1.91 151 218 (2019) 59 (2015) 127 70 91 94 125 142 153 207
2020-02-21 15:15 1.91 151 218 (2019) 59 (2015) 127 70 91 94 125 142 153 207
2020-02-21 14:15 1.91 151 218 (2019) 59 (2015) 127 70 91 94 125 142 153 207
2020-02-21 13:15 1.91 151 218 (2019) 59 (2015) 127 70 91 94 125 142 153 207
2020-02-21 12:15 1.91 151 218 (2019) 59 (2015) 127 70 91 94 125 142 153 207
2020-02-21 11:15 1.91 151 218 (2019) 59 (2015) 127 70 91 94 125 142 153 207
2020-02-21 10:15 1.91 151 218 (2019) 59 (2015) 127 70 91 94 125 142 153 207
2020-02-21 09:15 1.91 151 218 (2019) 59 (2015) 127 70 91 94 125 142 153 207
2020-02-21 08:15 1.92 153 218 (2019) 59 (2015) 127 70 91 94 125 142 153 207
2020-02-21 07:15 1.91 151 218 (2019) 59 (2015) 127 70 91 94 125 142 153 207
2020-02-21 06:15 1.91 151 218 (2019) 59 (2015) 127 70 91 94 125 142 153 207
2020-02-21 05:15 1.92 153 218 (2019) 59 (2015) 127 70 91 94 125 142 153 207
2020-02-21 04:15 1.92 153 218 (2019) 59 (2015) 127 70 91 94 125 142 153 207
2020-02-21 03:15 1.92 153 218 (2019) 59 (2015) 127 70 91 94 125 142 153 207
2020-02-21 02:15 1.92 153 218 (2019) 59 (2015) 127 70 91 94 125 142 153 207
2020-02-21 01:15 1.92 153 218 (2019) 59 (2015) 127 70 91 94 125 142 153 207
2020-02-21 00:15 1.92 153 218 (2019) 59 (2015) 127 70 91 94 125 142 153 207
2020-02-20 23:15 1.92 153 205 (2019) 58 (2015) 115 66 84 88 96 141 150 187
2020-02-20 22:15 1.92 153 205 (2019) 58 (2015) 115 66 84 88 96 141 150 187
2020-02-20 21:15 1.92 153 205 (2019) 58 (2015) 115 66 84 88 96 141 150 187
2020-02-20 20:15 1.93 155 205 (2019) 58 (2015) 115 66 84 88 96 141 150 187
2020-02-20 19:15 1.93 155 205 (2019) 58 (2015) 115 66 84 88 96 141 150 187
2020-02-20 18:15 1.93 155 205 (2019) 58 (2015) 115 66 84 88 96 141 150 187
2020-02-20 17:15 1.93 155 205 (2019) 58 (2015) 115 66 84 88 96 141 150 187
2020-02-20 16:15 1.93 155 205 (2019) 58 (2015) 115 66 84 88 96 141 150 187
2020-02-20 15:15 1.93 155 205 (2019) 58 (2015) 115 66 84 88 96 141 150 187
2020-02-20 14:15 1.94 157 205 (2019) 58 (2015) 115 66 84 88 96 141 150 187
2020-02-20 13:15 1.94 157 205 (2019) 58 (2015) 115 66 84 88 96 141 150 187
2020-02-20 12:15 1.93 155 205 (2019) 58 (2015) 115 66 84 88 96 141 150 187
2020-02-20 11:15 1.94 157 205 (2019) 58 (2015) 115 66 84 88 96 141 150 187
2020-02-20 10:15 1.94 157 205 (2019) 58 (2015) 115 66 84 88 96 141 150 187
2020-02-20 09:15 1.94 157 205 (2019) 58 (2015) 115 66 84 88 96 141 150 187
2020-02-20 08:15 1.94 157 205 (2019) 58 (2015) 115 66 84 88 96 141 150 187
2020-02-20 07:15 1.94 157 205 (2019) 58 (2015) 115 66 84 88 96 141 150 187
2020-02-20 06:15 1.94 157 205 (2019) 58 (2015) 115 66 84 88 96 141 150 187
2020-02-20 05:15 1.94 157 205 (2019) 58 (2015) 115 66 84 88 96 141 150 187
2020-02-20 04:15 1.94 157 205 (2019) 58 (2015) 115 66 84 88 96 141 150 187
2020-02-20 03:15 1.95 159 205 (2019) 58 (2015) 115 66 84 88 96 141 150 187
2020-02-20 02:15 1.95 159 205 (2019) 58 (2015) 115 66 84 88 96 141 150 187
2020-02-20 01:15 1.95 159 205 (2019) 58 (2015) 115 66 84 88 96 141 150 187
2020-02-20 00:15 1.95 159 205 (2019) 58 (2015) 115 66 84 88 96 141 150 187
2020-02-19 23:15 1.95 159 188 (2008) 57 (2015) 117 65 78 81 99 147 163 187
2020-02-19 22:15 1.96 161 188 (2008) 57 (2015) 117 65 78 81 99 147 163 187
2020-02-19 21:15 1.96 161 188 (2008) 57 (2015) 117 65 78 81 99 147 163 187
2020-02-19 20:15 1.96 161 188 (2008) 57 (2015) 117 65 78 81 99 147 163 187
2020-02-19 19:15 1.96 161 188 (2008) 57 (2015) 117 65 78 81 99 147 163 187
2020-02-19 18:15 1.96 161 188 (2008) 57 (2015) 117 65 78 81 99 147 163 187
2020-02-19 17:15 1.96 161 188 (2008) 57 (2015) 117 65 78 81 99 147 163 187
2020-02-19 16:15 1.96 161 188 (2008) 57 (2015) 117 65 78 81 99 147 163 187
2020-02-19 15:15 1.96 161 188 (2008) 57 (2015) 117 65 78 81 99 147 163 187
2020-02-19 14:15 1.97 163 188 (2008) 57 (2015) 117 65 78 81 99 147 163 187
2020-02-19 13:15 1.97 163 188 (2008) 57 (2015) 117 65 78 81 99 147 163 187
2020-02-19 12:15 1.97 163 188 (2008) 57 (2015) 117 65 78 81 99 147 163 187
2020-02-19 11:15 1.97 163 188 (2008) 57 (2015) 117 65 78 81 99 147 163 187
2020-02-19 10:15 1.97 163 188 (2008) 57 (2015) 117 65 78 81 99 147 163 187
2020-02-19 09:15 1.97 163 188 (2008) 57 (2015) 117 65 78 81 99 147 163 187
2020-02-19 08:15 1.97 163 188 (2008) 57 (2015) 117 65 78 81 99 147 163 187
2020-02-19 07:15 1.97 163 188 (2008) 57 (2015) 117 65 78 81 99 147 163 187
2020-02-19 06:15 1.98 165 188 (2008) 57 (2015) 117 65 78 81 99 147 163 187
2020-02-19 05:15 1.98 165 188 (2008) 57 (2015) 117 65 78 81 99 147 163 187
2020-02-19 04:15 1.98 165 188 (2008) 57 (2015) 117 65 78 81 99 147 163 187
2020-02-19 03:15 1.98 165 188 (2008) 57 (2015) 117 65 78 81 99 147 163 187
2020-02-19 02:15 1.98 165 188 (2008) 57 (2015) 117 65 78 81 99 147 163 187
2020-02-19 01:15 1.98 165 188 (2008) 57 (2015) 117 65 78 81 99 147 163 187
2020-02-19 00:15 1.99 166 188 (2008) 57 (2015) 117 65 78 81 99 147 163 187
2020-02-18 23:15 1.99 166 239 (2008) 58 (2015) 124 65 77 81 104 160 174 222
2020-02-18 22:15 1.99 166 239 (2008) 58 (2015) 124 65 77 81 104 160 174 222
2020-02-18 21:15 1.99 166 239 (2008) 58 (2015) 124 65 77 81 104 160 174 222
2020-02-18 20:15 1.99 166 239 (2008) 58 (2015) 124 65 77 81 104 160 174 222
2020-02-18 19:15 1.99 166 239 (2008) 58 (2015) 124 65 77 81 104 160 174 222
2020-02-18 18:15 1.99 166 239 (2008) 58 (2015) 124 65 77 81 104 160 174 222
2020-02-18 17:15 2.00 168 239 (2008) 58 (2015) 124 65 77 81 104 160 174 222
2020-02-18 16:15 2.00 168 239 (2008) 58 (2015) 124 65 77 81 104 160 174 222
2020-02-18 15:15 2.00 168 239 (2008) 58 (2015) 124 65 77 81 104 160 174 222
2020-02-18 14:15 2.00 168 239 (2008) 58 (2015) 124 65 77 81 104 160 174 222
2020-02-18 13:15 2.01 170 239 (2008) 58 (2015) 124 65 77 81 104 160 174 222
2020-02-18 12:15 2.01 170 239 (2008) 58 (2015) 124 65 77 81 104 160 174 222
2020-02-18 11:15 2.01 170 239 (2008) 58 (2015) 124 65 77 81 104 160 174 222
2020-02-18 10:15 2.01 170 239 (2008) 58 (2015) 124 65 77 81 104 160 174 222
2020-02-18 09:15 2.01 170 239 (2008) 58 (2015) 124 65 77 81 104 160 174 222
2020-02-18 08:15 2.02 172 239 (2008) 58 (2015) 124 65 77 81 104 160 174 222
2020-02-18 07:15 2.02 172 239 (2008) 58 (2015) 124 65 77 81 104 160 174 222
2020-02-18 06:15 2.02 172 239 (2008) 58 (2015) 124 65 77 81 104 160 174 222
2020-02-18 05:15 2.02 172 239 (2008) 58 (2015) 124 65 77 81 104 160 174 222
2020-02-18 04:15 2.02 172 239 (2008) 58 (2015) 124 65 77 81 104 160 174 222
2020-02-18 03:15 2.03 174 239 (2008) 58 (2015) 124 65 77 81 104 160 174 222
2020-02-18 02:15 2.03 174 239 (2008) 58 (2015) 124 65 77 81 104 160 174 222
2020-02-18 01:15 2.03 174 239 (2008) 58 (2015) 124 65 77 81 104 160 174 222
2020-02-18 00:15 2.03 174 239 (2008) 58 (2015) 124 65 77 81 104 160 174 222

A total of 184 rows are displayed for years 2007 through 2019.